Time;durP1;ratioP1;P1;durP2;ratioP2;P2;SDS_P1;SDS_P2;PMS_P1;PMS_P2;Temp;Humidity;BMP_temperature;BMP_pressure;BME280_temperature;BME280_humidity;BME280_pressure;Samples;Min_cycle;Max_cycle;Signal;HPM_P1;HPM_P2
2022/02/14 00:00:37;;;;;;;3.30;0.10;;;19.70;40.20;;;;;;5031279;28;20091;-52
2022/02/14 00:03:05;;;;;;;2.15;0.47;;;19.70;40.20;;;;;;5070036;28;20139;-55
2022/02/14 00:05:32;;;;;;;0.73;0.45;;;19.70;40.20;;;;;;5068193;28;20044;-56
2022/02/14 00:08:00;;;;;;;0.98;0.40;;;19.70;40.20;;;;;;5074076;28;20131;-55
2022/02/14 00:10:27;;;;;;;1.48;0.57;;;19.70;40.30;;;;;;5068979;28;20068;-55
2022/02/14 00:12:54;;;;;;;1.10;0.20;;;19.70;40.30;;;;;;5065285;28;20077;-54
2022/02/14 00:15:23;;;;;;;3.55;0.63;;;19.70;40.30;;;;;;5072829;28;20041;-54
2022/02/14 00:17:51;;;;;;;1.13;0.32;;;19.70;40.30;;;;;;5076227;28;20036;-53
2022/02/14 00:20:18;;;;;;;1.15;0.57;;;19.70;40.30;;;;;;5073141;28;20044;-51
2022/02/14 00:22:46;;;;;;;0.40;0.17;;;19.70;40.30;;;;;;5076492;28;20512;-55
2022/02/14 00:25:14;;;;;;;3.05;0.20;;;19.70;40.90;;;;;;5081794;28;20496;-54
2022/02/14 00:27:41;;;;;;;0.90;0.30;;;19.70;40.40;;;;;;5073413;28;20113;-56
2022/02/14 00:30:09;;;;;;;2.28;0.25;;;19.70;40.40;;;;;;5069159;28;20057;-56
2022/02/14 00:32:37;;;;;;;1.30;0.10;;;19.70;40.40;;;;;;5073559;28;20037;-55
2022/02/14 00:35:05;;;;;;;1.40;0.10;;;19.60;40.40;;;;;;5082006;28;20460;-52
2022/02/14 00:37:32;;;;;;;2.58;0.20;;;19.70;40.50;;;;;;5070269;28;20628;-56
2022/02/14 00:40:00;;;;;;;1.75;0.20;;;19.60;40.40;;;;;;5081560;28;20068;-55
2022/02/14 00:42:27;;;;;;;0.30;0.25;;;19.60;40.50;;;;;;5072072;28;20044;-56
2022/02/14 00:44:54;;;;;;;1.90;0.10;;;19.60;40.50;;;;;;5079721;28;20045;-55
2022/02/14 00:47:22;;;;;;;1.15;1.05;;;19.60;40.50;;;;;;5059348;28;20052;-56
2022/02/14 00:49:52;;;;;;;1.83;0.25;;;19.60;41.10;;;;;;5075917;28;20046;-52
2022/02/14 00:52:20;;;;;;;0.30;0.20;;;19.60;40.50;;;;;;5072311;28;20032;-53
2022/02/14 00:54:47;;;;;;;1.02;0.10;;;19.60;40.60;;;;;;5066349;28;20032;-55
2022/02/14 00:57:14;;;;;;;1.17;0.30;;;19.60;40.60;;;;;;5076909;28;20047;-52
2022/02/14 00:59:42;;;;;;;1.30;0.52;;;19.60;40.60;;;;;;5074079;28;20051;-53
2022/02/14 01:02:10;;;;;;;0.73;0.20;;;19.60;40.60;;;;;;5070008;28;20048;-52
2022/02/14 01:04:37;;;;;;;0.85;0.10;;;19.60;40.60;;;;;;5083098;28;20457;-55
2022/02/14 01:07:05;;;;;;;2.08;0.10;;;19.60;40.60;;;;;;5070145;28;20420;-55
2022/02/14 01:09:34;;;;;;;1.58;0.10;;;19.60;40.70;;;;;;5077708;28;20045;-55
2022/02/14 01:12:03;;;;;;;2.92;0.82;;;19.50;40.60;;;;;;5085080;28;20046;-56
2022/02/14 01:14:30;;;;;;;1.20;0.15;;;19.50;40.60;;;;;;5071374;28;20044;-54
2022/02/14 01:16:57;;;;;;;1.17;0.30;;;19.50;40.70;;;;;;5076186;28;20500;-54
2022/02/14 01:19:24;;;;;;;0.20;0.10;;;19.60;40.80;;;;;;5071668;28;20413;-54
2022/02/14 01:21:51;;;;;;;0.40;0.10;;;19.50;40.70;;;;;;5074507;28;20496;-52
2022/02/14 01:24:20;;;;;;;0.80;0.15;;;19.50;40.80;;;;;;5071115;28;20824;-55
2022/02/14 01:26:47;;;;;;;1.98;0.30;;;19.50;40.80;;;;;;5073398;28;20048;-54
2022/02/14 01:29:14;;;;;;;0.28;0.10;;;19.50;40.80;;;;;;5064507;28;20128;-53
2022/02/14 01:31:41;;;;;;;3.38;0.15;;;19.50;40.80;;;;;;5082177;28;20036;-56
2022/02/14 01:34:08;;;;;;;1.25;0.20;;;19.50;40.90;;;;;;5081999;28;20050;-53
2022/02/14 01:36:35;;;;;;;0.73;0.40;;;19.50;40.90;;;;;;5073989;28;20050;-53
2022/02/14 01:39:02;;;;;;;1.98;0.20;;;19.50;40.90;;;;;;5073388;28;20083;-53
2022/02/14 01:41:31;;;;;;;7.72;0.20;;;19.50;41.00;;;;;;5071117;28;20044;-52
2022/02/14 01:43:58;;;;;;;1.10;0.20;;;19.50;41.00;;;;;;5069604;28;20665;-55
2022/02/14 01:46:25;;;;;;;1.35;0.10;;;19.50;41.00;;;;;;5068424;28;20044;-51
2022/02/14 01:48:52;;;;;;;0.90;0.15;;;19.50;41.00;;;;;;5076477;28;20071;-51
2022/02/14 01:51:19;;;;;;;0.50;0.50;;;19.50;41.00;;;;;;5074399;28;20048;-56
2022/02/14 01:53:46;;;;;;;1.45;0.20;;;19.50;41.10;;;;;;5088474;28;20543;-56
2022/02/14 01:56:13;;;;;;;3.20;0.43;;;19.50;41.10;;;;;;5070375;28;20074;-53
2022/02/14 01:58:42;;;;;;;0.55;0.10;;;19.50;41.10;;;;;;5071043;28;20036;-55
2022/02/14 02:01:09;;;;;;;1.58;0.10;;;19.50;41.10;;;;;;5078180;28;20071;-55
2022/02/14 02:03:36;;;;;;;1.10;0.10;;;19.50;41.20;;;;;;5073543;28;20032;-56
2022/02/14 02:06:04;;;;;;;2.55;0.10;;;19.50;41.20;;;;;;5068002;28;20048;-53
2022/02/14 02:08:31;;;;;;;0.73;0.20;;;19.40;41.20;;;;;;5073836;28;20040;-54
2022/02/14 02:12:22;;;;;;;2.88;0.10;;;19.40;41.20;;;;;;5073753;28;20045;-55
2022/02/14 02:13:50;;;;;;;0.20;0.10;;;19.40;41.20;;;;;;5081836;28;20050;-55
2022/02/14 02:16:17;;;;;;;0.57;0.10;;;19.40;41.30;;;;;;5071509;28;20070;-55
2022/02/14 02:18:44;;;;;;;3.55;0.20;;;19.40;41.40;;;;;;5068371;28;20049;-50
2022/02/14 02:21:12;;;;;;;0.22;0.10;;;19.40;41.40;;;;;;5072543;28;20129;-54
2022/02/14 02:23:41;;;;;;;1.15;0.47;;;19.40;41.40;;;;;;5077508;28;20079;-55
2022/02/14 02:26:09;;;;;;;1.48;0.30;;;19.40;41.50;;;;;;5070239;28;20059;-54
2022/02/14 02:28:36;;;;;;;2.92;0.20;;;19.40;41.50;;;;;;5068667;28;20040;-54
2022/02/14 02:31:04;;;;;;;1.45;0.17;;;19.40;41.50;;;;;;5069754;28;20046;-55
2022/02/14 02:33:32;;;;;;;1.42;0.10;;;19.40;41.50;;;;;;5082240;28;20044;-53
2022/02/14 02:36:00;;;;;;;1.00;0.17;;;19.40;41.60;;;;;;5086124;28;20480;-53
2022/02/14 02:38:27;;;;;;;2.55;0.20;;;19.40;41.60;;;;;;5077863;28;20594;-54
2022/02/14 02:40:54;;;;;;;1.23;0.10;;;19.40;41.70;;;;;;5076619;28;20114;-53
2022/02/14 02:43:23;;;;;;;1.70;0.57;;;19.40;41.70;;;;;;5079797;28;20048;-53
2022/02/14 02:45:55;;;;;;;1.30;0.10;;;19.40;41.70;;;;;;5079580;28;20561;-55
2022/02/14 02:48:23;;;;;;;1.95;0.10;;;19.40;41.80;;;;;;5085756;28;20032;-53
2022/02/14 02:51:02;;;;;;;0.90;0.10;;;19.40;41.90;;;;;;5084612;28;20136;-53
2022/02/14 02:53:30;;;;;;;1.20;0.10;;;19.40;41.90;;;;;;5056387;28;20523;-52
2022/02/14 02:55:57;;;;;;;0.10;0.10;;;19.40;41.90;;;;;;5074451;28;20040;-53
2022/02/14 02:58:26;;;;;;;0.90;0.00;;;19.40;42.00;;;;;;5067727;28;20513;-56
2022/02/14 03:00:53;;;;;;;0.63;0.10;;;19.40;42.00;;;;;;5067417;28;20105;-55
2022/02/14 03:03:20;;;;;;;0.93;0.30;;;19.40;42.00;;;;;;5070296;28;20071;-56
2022/02/14 03:05:48;;;;;;;0.22;0.10;;;19.40;42.10;;;;;;5070070;28;20579;-53
2022/02/14 03:08:15;;;;;;;0.30;0.10;;;19.40;42.10;;;;;;5074823;28;20461;-54
2022/02/14 03:10:42;;;;;;;0.55;0.10;;;19.30;42.00;;;;;;5071616;28;20066;-54
2022/02/14 03:13:09;;;;;;;2.40;0.40;;;19.40;42.10;;;;;;5073333;28;20045;-53
2022/02/14 03:15:38;;;;;;;1.00;0.10;;;19.40;42.10;;;;;;5065637;28;20056;-53
2022/02/14 03:18:05;;;;;;;1.48;0.25;;;19.30;42.10;;;;;;5067851;28;20040;-54
2022/02/14 03:20:32;;;;;;;0.77;0.50;;;19.40;42.20;;;;;;5072815;28;20051;-52
2022/02/14 03:22:59;;;;;;;1.38;0.80;;;19.40;42.30;;;;;;5067469;28;20123;-56
2022/02/14 03:25:26;;;;;;;0.38;0.10;;;19.30;42.30;;;;;;5075343;28;20048;-55
2022/02/14 03:27:53;;;;;;;0.80;0.10;;;19.40;42.40;;;;;;5080634;28;20505;-52
2022/02/14 03:30:20;;;;;;;1.58;0.10;;;19.40;42.40;;;;;;5071847;28;20040;-53
2022/02/14 03:32:48;;;;;;;0.13;0.10;;;19.30;42.40;;;;;;5066345;28;20083;-52
2022/02/14 03:35:15;;;;;;;0.15;0.10;;;19.30;42.50;;;;;;5069138;28;20036;-55
2022/02/14 03:37:43;;;;;;;0.40;0.40;;;19.30;42.50;;;;;;5071001;28;20094;-55
2022/02/14 03:40:10;;;;;;;0.80;0.10;;;19.30;42.50;;;;;;5068866;28;20159;-56
2022/02/14 03:42:37;;;;;;;0.13;0.00;;;19.40;42.60;;;;;;5071315;28;20043;-55
2022/02/14 03:45:05;;;;;;;0.93;0.10;;;19.40;42.60;;;;;;5071101;28;20044;-55
2022/02/14 03:47:32;;;;;;;1.88;0.68;;;19.30;42.60;;;;;;5066975;28;20044;-53
2022/02/14 03:50:01;;;;;;;2.40;0.10;;;19.40;42.70;;;;;;5077177;28;20538;-53
2022/02/14 03:52:28;;;;;;;0.77;0.20;;;19.30;42.60;;;;;;5082092;28;20143;-55
2022/02/14 03:54:55;;;;;;;1.33;0.22;;;19.30;42.60;;;;;;5075757;28;20509;-55
2022/02/14 03:57:22;;;;;;;1.13;0.10;;;19.40;42.70;;;;;;5087190;28;20044;-53
2022/02/14 03:59:49;;;;;;;0.15;0.00;;;19.40;42.70;;;;;;5078242;28;20044;-52
2022/02/14 04:02:16;;;;;;;0.85;0.10;;;19.40;42.70;;;;;;5073158;28;20513;-53
2022/02/14 04:04:43;;;;;;;0.43;0.10;;;19.40;42.80;;;;;;5076178;28;20039;-53
2022/02/14 04:07:12;;;;;;;1.65;0.05;;;19.40;42.80;;;;;;5070755;28;20113;-54
2022/02/14 04:09:39;;;;;;;0.75;0.00;;;19.40;42.80;;;;;;5068947;28;20032;-54
2022/02/14 04:12:06;;;;;;;0.10;0.08;;;19.30;42.70;;;;;;5070153;28;20053;-54
2022/02/14 04:14:33;;;;;;;0.20;0.10;;;19.30;42.70;;;;;;5077245;28;20058;-50
2022/02/14 04:17:01;;;;;;;0.55;0.40;;;19.40;42.80;;;;;;5077280;28;20591;-52
2022/02/14 04:19:28;;;;;;;3.00;0.00;;;19.30;42.70;;;;;;5073475;28;20036;-53
2022/02/14 04:21:55;;;;;;;0.10;0.00;;;19.30;42.70;;;;;;5069492;28;20120;-53
2022/02/14 04:24:23;;;;;;;0.00;0.00;;;19.30;42.70;;;;;;5073268;28;20408;-55
2022/02/14 04:26:50;;;;;;;0.77;0.32;;;19.30;42.70;;;;;;5081344;28;20056;-55
2022/02/14 04:29:21;;;;;;;1.05;0.05;;;19.30;42.70;;;;;;5072659;28;20048;-55
2022/02/14 04:31:48;;;;;;;0.68;0.10;;;19.30;42.80;;;;;;5055459;28;20115;-54
2022/02/14 04:34:18;;;;;;;0.10;0.10;;;19.30;42.80;;;;;;5077846;28;20044;-54
2022/02/14 04:36:45;;;;;;;0.40;0.00;;;19.30;42.80;;;;;;5073370;28;20048;-54
2022/02/14 04:39:13;;;;;;;0.63;0.00;;;19.30;42.80;;;;;;5068839;28;20032;-54
2022/02/14 04:41:41;;;;;;;0.75;0.20;;;19.30;42.80;;;;;;5075953;28;20045;-54
2022/02/14 04:44:09;;;;;;;0.10;0.05;;;19.30;42.80;;;;;;5072949;28;20055;-54
2022/02/14 04:46:36;;;;;;;0.00;0.00;;;19.30;42.80;;;;;;5072488;28;20033;-54
2022/02/14 04:49:04;;;;;;;0.00;0.00;;;19.30;42.80;;;;;;5075482;28;20093;-52
2022/02/14 04:51:31;;;;;;;0.00;0.00;;;19.20;42.80;;;;;;5073473;28;20055;-53
2022/02/14 04:53:58;;;;;;;0.75;0.20;;;19.20;42.80;;;;;;5080934;28;20060;-50
2022/02/14 04:56:25;;;;;;;0.55;0.00;;;19.20;42.80;;;;;;5069859;28;20059;-53
2022/02/14 04:58:53;;;;;;;1.38;0.10;;;19.20;42.80;;;;;;5074938;28;20397;-54
2022/02/14 05:01:21;;;;;;;0.10;0.00;;;19.20;42.80;;;;;;5067344;28;20135;-52
2022/02/14 05:03:48;;;;;;;0.00;0.00;;;19.20;42.80;;;;;;5073485;28;20082;-53
2022/02/14 05:06:15;;;;;;;0.00;0.00;;;19.20;42.80;;;;;;5068442;28;20060;-55
2022/02/14 05:08:42;;;;;;;0.20;0.20;;;19.20;42.80;;;;;;5071129;28;20037;-52
2022/02/14 05:11:09;;;;;;;1.05;0.00;;;19.20;42.80;;;;;;5078665;28;20047;-53
2022/02/14 05:13:39;;;;;;;0.80;0.00;;;19.20;42.80;;;;;;5079814;28;20910;-55
2022/02/14 05:16:08;;;;;;;0.00;0.00;;;19.20;42.80;;;;;;5082005;28;20055;-56
2022/02/14 05:18:36;;;;;;;0.88;0.00;;;19.10;42.80;;;;;;5071978;28;20657;-55
2022/02/14 05:21:03;;;;;;;0.00;0.00;;;19.10;42.80;;;;;;5073525;28;20119;-55
2022/02/14 05:23:31;;;;;;;0.00;0.00;;;19.10;42.80;;;;;;5078152;28;20123;-53
2022/02/14 05:25:58;;;;;;;0.00;0.00;;;19.10;42.80;;;;;;5074666;28;20072;-55
2022/02/14 05:28:25;;;;;;;1.27;0.10;;;19.10;42.80;;;;;;5079959;28;20481;-53
2022/02/14 05:30:52;;;;;;;0.35;0.20;;;19.10;42.80;;;;;;5070139;28;20036;-54
2022/02/14 05:33:20;;;;;;;0.00;0.00;;;19.10;42.90;;;;;;5067467;28;20044;-55
2022/02/14 05:35:47;;;;;;;1.35;0.00;;;19.10;42.90;;;;;;5070457;28;20037;-52
2022/02/14 05:38:15;;;;;;;0.22;0.00;;;19.00;42.90;;;;;;5076259;28;20048;-52
2022/02/14 05:40:42;;;;;;;0.00;0.00;;;19.00;42.90;;;;;;5070737;28;20042;-52
2022/02/14 05:43:09;;;;;;;0.43;0.00;;;19.00;42.90;;;;;;5079516;28;20532;-53
2022/02/14 05:45:36;;;;;;;0.43;0.10;;;19.00;42.90;;;;;;5082842;28;20569;-56
2022/02/14 05:48:03;;;;;;;0.20;0.00;;;19.00;42.90;;;;;;5070510;28;20051;-53
2022/02/14 05:50:32;;;;;;;0.00;0.00;;;19.00;43.00;;;;;;5072119;28;20124;-54
2022/02/14 05:52:59;;;;;;;0.10;0.00;;;19.00;43.00;;;;;;5071422;28;20033;-54
2022/02/14 05:55:26;;;;;;;0.00;0.00;;;19.00;43.00;;;;;;5076903;28;20055;-54
2022/02/14 05:57:53;;;;;;;0.08;0.00;;;19.00;43.00;;;;;;5069239;28;20036;-54
2022/02/14 06:00:21;;;;;;;0.10;0.00;;;18.90;43.00;;;;;;5068203;28;20402;-56
2022/02/14 06:02:48;;;;;;;0.20;0.00;;;18.90;43.00;;;;;;5070090;28;20534;-54
2022/02/14 06:05:16;;;;;;;0.65;0.00;;;18.90;43.10;;;;;;5072657;28;20044;-54
2022/02/14 06:07:44;;;;;;;0.03;0.00;;;18.90;43.10;;;;;;5077023;28;20040;-54
2022/02/14 06:10:11;;;;;;;0.30;0.00;;;18.90;43.10;;;;;;5074157;28;20457;-53
2022/02/14 06:12:39;;;;;;;0.17;0.00;;;18.90;43.10;;;;;;5069032;28;20123;-55
2022/02/14 06:15:07;;;;;;;0.00;0.00;;;18.90;43.20;;;;;;5072942;28;20055;-54
2022/02/14 06:17:35;;;;;;;0.00;0.00;;;18.80;43.10;;;;;;5076287;28;20282;-53
2022/02/14 06:20:02;;;;;;;0.00;0.00;;;18.80;43.10;;;;;;5073706;28;20067;-53
2022/02/14 06:22:29;;;;;;;0.45;0.00;;;18.80;43.10;;;;;;5074599;28;20040;-56
2022/02/14 06:24:58;;;;;;;0.40;0.00;;;18.80;43.20;;;;;;5073370;28;20048;-55
2022/02/14 06:27:25;;;;;;;0.38;0.20;;;18.80;43.20;;;;;;5082311;28;20113;-56
2022/02/14 06:29:53;;;;;;;0.00;0.00;;;18.80;43.20;;;;;;5072328;28;20048;-51
2022/02/14 06:32:20;;;;;;;0.00;0.00;;;18.80;43.20;;;;;;5078763;28;20054;-53
2022/02/14 06:34:47;;;;;;;0.00;0.00;;;18.80;43.20;;;;;;5073052;28;20041;-50
2022/02/14 06:37:14;;;;;;;0.30;0.00;;;18.80;43.20;;;;;;5075042;28;20127;-52
2022/02/14 06:39:41;;;;;;;1.27;0.00;;;18.80;43.30;;;;;;5065723;28;20123;-52
2022/02/14 06:42:10;;;;;;;0.95;0.00;;;18.80;43.30;;;;;;5072744;28;20123;-52
2022/02/14 06:44:38;;;;;;;0.03;0.00;;;18.80;43.40;;;;;;5078874;28;20095;-54
2022/02/14 06:47:06;;;;;;;0.50;0.00;;;18.80;43.40;;;;;;5071825;28;20044;-54
2022/02/14 06:49:33;;;;;;;0.00;0.00;;;18.70;43.30;;;;;;5072188;28;20133;-52
2022/02/14 06:52:01;;;;;;;0.00;0.00;;;18.70;43.30;;;;;;5073429;28;20062;-53
2022/02/14 06:54:28;;;;;;;0.00;0.00;;;18.80;44.00;;;;;;5073670;28;20599;-55
2022/02/14 06:56:55;;;;;;;0.57;0.00;;;18.80;43.40;;;;;;5078454;28;20052;-55
2022/02/14 06:59:24;;;;;;;0.52;0.00;;;18.70;43.40;;;;;;5077481;28;20128;-54
2022/02/14 07:01:52;;;;;;;0.28;0.20;;;18.70;43.50;;;;;;5053304;28;20130;-56
2022/02/14 07:04:19;;;;;;;0.30;0.00;;;18.70;43.50;;;;;;5073194;28;20161;-54
2022/02/14 07:06:46;;;;;;;0.13;0.00;;;18.80;43.60;;;;;;5074204;28;20091;-54
2022/02/14 07:09:13;;;;;;;0.10;0.00;;;18.80;43.60;;;;;;5072235;28;20072;-55
2022/02/14 07:11:44;;;;;;;1.27;0.00;;;18.70;43.60;;;;;;5067015;28;20044;-54
2022/02/14 07:14:11;;;;;;;0.00;0.00;;;18.80;44.20;;;;;;5069126;28;20044;-56
2022/02/14 07:16:40;;;;;;;0.10;0.00;;;18.80;43.70;;;;;;5071061;28;20072;-54
2022/02/14 07:19:08;;;;;;;1.02;0.00;;;18.80;43.70;;;;;;5053862;28;20403;-57
2022/02/14 07:21:35;;;;;;;2.28;0.00;;;18.80;43.70;;;;;;5066354;28;20040;-55
2022/02/14 07:24:02;;;;;;;0.10;0.00;;;18.80;43.70;;;;;;5070234;28;20051;-54
2022/02/14 07:26:30;;;;;;;0.40;0.00;;;18.80;43.70;;;;;;5075000;28;20049;-55
2022/02/14 07:28:57;;;;;;;0.68;0.00;;;18.80;43.70;;;;;;5053628;28;20036;-55
2022/02/14 07:31:24;;;;;;;0.00;0.00;;;18.80;43.70;;;;;;5064814;28;20059;-51
2022/02/14 07:33:53;;;;;;;1.40;0.00;;;18.80;43.70;;;;;;5072958;28;20033;-55
2022/02/14 07:36:21;;;;;;;0.08;0.00;;;18.80;43.60;;;;;;5054889;28;20044;-55
2022/02/14 07:38:49;;;;;;;0.00;0.00;;;18.70;43.50;;;;;;5080275;28;20044;-55
2022/02/14 07:41:16;;;;;;;0.00;0.00;;;18.80;43.50;;;;;;5072772;28;20041;-53
2022/02/14 07:43:43;;;;;;;0.55;0.00;;;18.70;43.50;;;;;;5071404;28;20040;-55
2022/02/14 07:46:10;;;;;;;0.03;0.00;;;18.80;43.50;;;;;;5064824;28;20815;-54
2022/02/14 07:48:39;;;;;;;0.20;0.00;;;18.70;43.50;;;;;;5066544;28;20136;-56
2022/02/14 07:51:07;;;;;;;0.65;0.00;;;18.70;43.50;;;;;;5071646;28;20036;-54
2022/02/14 07:53:34;;;;;;;0.50;0.00;;;18.70;43.50;;;;;;5074119;28;20051;-54
2022/02/14 07:56:01;;;;;;;0.20;0.00;;;18.70;43.50;;;;;;5071645;28;20416;-56
2022/02/14 07:58:28;;;;;;;0.00;0.00;;;18.70;43.50;;;;;;5075792;28;20076;-52
2022/02/14 08:00:56;;;;;;;1.50;0.30;;;18.80;43.50;;;;;;5049236;28;20040;-55
2022/02/14 08:03:23;;;;;;;0.00;0.00;;;18.80;43.50;;;;;;5071908;28;20049;-56
2022/02/14 08:05:50;;;;;;;0.10;0.00;;;18.70;43.40;;;;;;5066880;28;20163;-51
2022/02/14 08:08:19;;;;;;;0.30;0.22;;;18.80;43.50;;;;;;5071840;28;20047;-54
2022/02/14 08:10:50;;;;;;;0.63;0.20;;;18.70;43.40;;;;;;5064828;28;20497;-53
2022/02/14 08:13:18;;;;;;;1.55;0.20;;;18.70;43.40;;;;;;5064784;28;20041;-52
2022/02/14 08:15:45;;;;;;;0.80;0.00;;;18.70;43.40;;;;;;5065843;28;20440;-52
2022/02/14 08:18:12;;;;;;;0.40;0.00;;;18.70;43.40;;;;;;5063255;28;20149;-53
2022/02/14 08:20:40;;;;;;;0.52;0.00;;;18.80;43.40;;;;;;5069018;28;20040;-53
2022/02/14 08:23:07;;;;;;;0.38;0.00;;;18.70;43.30;;;;;;5064452;28;20139;-53
2022/02/14 08:25:36;;;;;;;0.40;0.00;;;18.70;43.30;;;;;;5067257;28;20532;-53
2022/02/14 08:28:05;;;;;;;0.95;0.10;;;18.80;43.40;;;;;;5064405;28;20045;-54
2022/02/14 08:30:33;;;;;;;1.38;0.00;;;18.80;43.30;;;;;;5065197;28;20056;-52
2022/02/14 08:33:00;;;;;;;0.80;0.08;;;18.80;43.30;;;;;;5084428;28;20573;-57
2022/02/14 08:35:29;;;;;;;0.73;0.73;;;18.80;43.20;;;;;;5072442;28;20049;-52
2022/02/14 08:37:56;;;;;;;0.47;0.00;;;18.80;43.20;;;;;;5070455;28;20111;-52
2022/02/14 08:40:23;;;;;;;0.30;0.03;;;18.80;43.20;;;;;;5077271;28;20040;-54
2022/02/14 08:42:52;;;;;;;0.63;0.00;;;18.80;43.10;;;;;;5083182;28;20041;-50
2022/02/14 08:45:21;;;;;;;3.33;0.30;;;18.80;43.10;;;;;;5072248;28;20512;-55
2022/02/14 08:47:49;;;;;;;3.65;0.10;;;18.90;43.20;;;;;;5072012;28;20044;-49
2022/02/14 08:50:17;;;;;;;0.17;0.10;;;18.90;43.20;;;;;;5059616;28;20145;-51
2022/02/14 08:52:45;;;;;;;2.00;0.20;;;18.90;43.20;;;;;;5074054;28;20531;-53
2022/02/14 08:55:13;;;;;;;1.85;0.10;;;18.90;43.10;;;;;;5071052;28;20048;-49
2022/02/14 08:57:41;;;;;;;0.95;0.10;;;18.90;43.10;;;;;;5067969;28;20417;-55
2022/02/14 09:00:11;;;;;;;1.95;0.13;;;19.00;43.10;;;;;;5075698;28;20127;-49
2022/02/14 09:02:39;;;;;;;1.95;0.10;;;19.00;43.00;;;;;;5083869;28;20044;-55
2022/02/14 09:05:06;;;;;;;1.27;0.10;;;19.00;43.00;;;;;;5077339;28;20122;-52
2022/02/14 09:07:33;;;;;;;1.13;0.22;;;19.00;43.00;;;;;;5072125;28;20044;-53
2022/02/14 09:10:01;;;;;;;0.88;0.10;;;19.00;42.90;;;;;;5079849;28;20043;-54
2022/02/14 09:12:28;;;;;;;0.60;0.10;;;19.10;42.90;;;;;;5054913;28;20182;-54
2022/02/14 09:14:55;;;;;;;1.00;0.63;;;19.10;42.80;;;;;;5077414;28;20047;-53
2022/02/14 09:17:25;;;;;;;3.50;0.35;;;19.10;42.80;;;;;;5080644;28;20135;-54
2022/02/14 09:19:52;;;;;;;1.35;0.40;;;19.20;42.70;;;;;;5080672;28;20555;-50
2022/02/14 09:22:20;;;;;;;1.17;0.65;;;19.20;42.60;;;;;;5067440;28;20040;-54
2022/02/14 09:24:48;;;;;;;1.85;0.17;;;19.20;42.60;;;;;;5068994;28;20063;-52
2022/02/14 09:27:16;;;;;;;0.88;0.35;;;19.20;42.50;;;;;;5070540;28;20573;-53
2022/02/14 09:29:43;;;;;;;0.98;0.40;;;19.30;42.60;;;;;;5075628;28;20045;-48
2022/02/14 09:32:10;;;;;;;2.15;0.20;;;19.30;42.50;;;;;;5072757;28;20040;-51
2022/02/14 09:34:39;;;;;;;1.63;0.15;;;19.40;42.40;;;;;;5077555;28;20036;-54
2022/02/14 09:37:06;;;;;;;2.85;0.32;;;19.30;42.30;;;;;;5080101;28;20546;-54
2022/02/14 09:39:33;;;;;;;1.70;0.22;;;19.30;42.20;;;;;;5070068;28;20146;-53
2022/02/14 09:42:01;;;;;;;4.00;0.50;;;19.40;42.20;;;;;;5073655;28;20037;-55
2022/02/14 09:44:29;;;;;;;1.63;0.57;;;19.40;42.20;;;;;;5079731;28;20366;-54
2022/02/14 09:46:56;;;;;;;2.65;0.35;;;19.40;42.10;;;;;;5069944;28;20049;-54
2022/02/14 09:49:24;;;;;;;4.38;0.47;;;19.40;42.10;;;;;;5066592;28;20135;-54
2022/02/14 09:51:54;;;;;;;6.00;1.38;;;19.40;42.10;;;;;;5070356;28;20044;-55
2022/02/14 09:54:22;;;;;;;1.48;0.45;;;19.50;42.10;;;;;;5085651;28;20037;-55
2022/02/14 09:56:50;;;;;;;3.63;1.10;;;19.50;42.10;;;;;;5070692;28;20131;-51
2022/02/14 09:59:18;;;;;;;4.63;1.05;;;19.50;42.00;;;;;;5071514;28;20044;-50
2022/02/14 10:01:46;;;;;;;4.63;0.80;;;19.50;42.00;;;;;;5077494;28;20040;-55
2022/02/14 10:04:14;;;;;;;4.22;0.88;;;19.50;42.00;;;;;;5078139;28;20524;-55
2022/02/14 10:06:43;;;;;;;6.07;1.23;;;19.50;41.90;;;;;;5071042;28;20055;-54
2022/02/14 10:09:14;;;;;;;3.20;0.20;;;19.60;42.00;;;;;;5075232;28;20044;-52
2022/02/14 10:11:57;;;;;;;6.85;1.10;;;19.60;41.80;;;;;;5072790;28;20044;-53
2022/02/14 10:14:26;;;;;;;6.35;0.95;;;19.70;42.40;;;;;;5071297;28;20063;-54
2022/02/14 10:17:06;;;;;;;5.22;0.77;;;19.60;41.80;;;;;;5069454;28;20043;-55
2022/02/14 10:19:35;;;;;;;3.03;0.80;;;19.70;41.70;;;;;;5066875;28;20051;-56
2022/02/14 10:22:08;;;;;;;5.38;0.70;;;19.70;41.60;;;;;;5070533;28;20508;-55
2022/02/14 10:24:41;;;;;;;6.35;0.70;;;19.70;41.50;;;;;;5077934;28;20036;-54
2022/02/14 10:27:10;;;;;;;2.30;0.50;;;19.70;41.50;;;;;;5069861;28;20044;-51
2022/02/14 10:29:39;;;;;;;3.53;1.10;;;19.70;41.50;;;;;;5074164;28;20032;-53
2022/02/14 10:32:15;;;;;;;3.55;0.93;;;19.70;41.40;;;;;;5069603;28;20043;-54
2022/02/14 10:34:44;;;;;;;2.83;0.88;;;19.70;41.40;;;;;;5068995;28;20036;-54
2022/02/14 10:37:13;;;;;;;3.60;0.60;;;19.70;41.40;;;;;;5066137;28;20064;-54
2022/02/14 10:39:43;;;;;;;2.92;0.50;;;19.70;41.40;;;;;;5070010;28;20086;-53
2022/02/14 10:42:12;;;;;;;4.63;1.00;;;19.80;41.50;;;;;;5070453;28;20501;-51
2022/02/14 10:47:29;;;;;;;2.30;0.40;;;19.70;41.40;;;;;;5072440;28;20787;-53
2022/02/14 10:50:01;;;;;;;1.35;0.47;;;19.80;41.40;;;;;;5068605;28;20047;-55
2022/02/14 10:52:35;;;;;;;3.58;0.52;;;19.80;41.30;;;;;;5073272;28;20726;-52
2022/02/14 10:55:07;;;;;;;6.32;0.80;;;19.90;41.30;;;;;;5070541;28;20036;-51
2022/02/14 10:57:37;;;;;;;2.30;0.20;;;19.90;41.20;;;;;;5080527;28;20044;-52
2022/02/14 11:00:09;;;;;;;4.15;0.40;;;20.00;41.20;;;;;;5078653;28;20135;-54
2022/02/14 11:02:38;;;;;;;1.25;0.20;;;20.00;41.10;;;;;;5074848;28;20101;-51
2022/02/14 11:05:07;;;;;;;2.92;0.50;;;20.10;41.10;;;;;;5066521;28;20093;-51
2022/02/14 11:07:34;;;;;;;1.77;0.38;;;20.10;40.90;;;;;;5069607;28;20136;-55
2022/02/14 11:10:06;;;;;;;0.50;0.30;;;20.20;40.90;;;;;;5071422;28;20545;-54
2022/02/14 11:12:35;;;;;;;3.42;0.28;;;20.20;40.70;;;;;;5081940;28;20106;-53
2022/02/14 11:15:04;;;;;;;3.33;0.28;;;20.30;40.60;;;;;;5077132;28;20131;-55
2022/02/14 11:17:34;;;;;;;2.63;0.40;;;20.40;40.60;;;;;;5075661;28;20066;-56
2022/02/14 11:20:05;;;;;;;2.95;0.30;;;20.50;40.50;;;;;;5074248;28;20480;-54
2022/02/14 11:22:34;;;;;;;2.75;0.45;;;20.50;40.30;;;;;;5065912;28;20623;-54
2022/02/14 11:25:09;;;;;;;2.47;0.20;;;20.60;40.20;;;;;;5070096;28;20141;-53
2022/02/14 11:27:43;;;;;;;2.55;0.57;;;20.60;40.10;;;;;;5069868;28;20122;-55
2022/02/14 11:30:14;;;;;;;2.35;1.45;;;20.60;40.00;;;;;;5075924;28;20052;-54
2022/02/14 11:32:43;;;;;;;1.40;0.20;;;20.60;40.60;;;;;;5082898;28;20051;-54
2022/02/14 11:35:14;;;;;;;1.63;0.30;;;20.70;39.90;;;;;;5079145;28;20135;-52
2022/02/14 11:37:54;;;;;;;1.33;0.52;;;20.70;39.80;;;;;;5075697;28;20044;-56
2022/02/14 11:40:52;;;;;;;1.20;0.10;;;20.80;39.70;;;;;;5071191;28;20113;-51
2022/02/14 11:43:22;;;;;;;0.98;0.20;;;20.80;39.60;;;;;;5002294;28;20049;-52
2022/02/14 11:46:19;;;;;;;1.40;0.30;;;20.90;39.60;;;;;;5002702;28;20048;-52
2022/02/14 11:48:51;;;;;;;1.83;0.20;;;21.00;39.40;;;;;;5002567;28;20042;-53
2022/02/14 11:51:24;;;;;;;0.88;0.30;;;21.00;39.30;;;;;;5015851;28;20049;-55
2022/02/14 11:53:53;;;;;;;1.80;0.73;;;21.10;39.30;;;;;;5007807;28;20085;-55
2022/02/14 11:56:29;;;;;;;1.88;0.40;;;21.10;39.10;;;;;;5004708;28;20450;-55
2022/02/14 11:59:07;;;;;;;1.92;0.10;;;21.20;39.00;;;;;;4991761;28;20057;-53
2022/02/14 12:01:37;;;;;;;1.67;0.10;;;21.20;38.90;;;;;;5010025;28;20462;-56
2022/02/14 12:04:40;;;;;;;1.65;0.20;;;21.30;38.90;;;;;;5004961;28;20038;-53
2022/02/14 12:07:34;;;;;;;0.90;0.20;;;21.40;38.80;;;;;;5012161;28;20054;-55
2022/02/14 12:10:22;;;;;;;3.20;0.40;;;21.40;38.60;;;;;;5010584;28;20722;-52
2022/02/14 12:13:16;;;;;;;1.58;0.65;;;21.50;38.60;;;;;;5018256;28;20046;-51
2022/02/14 12:21:31;;;;;;;2.92;0.17;;;21.60;38.30;;;;;;5071539;28;20101;-52
2022/02/14 12:24:00;;;;;;;2.53;0.10;;;21.60;38.30;;;;;;5078948;28;20151;-51
2022/02/14 12:26:29;;;;;;;2.28;0.43;;;21.60;38.20;;;;;;5072218;28;20051;-53
2022/02/14 12:31:52;;;;;;;0.93;0.10;;;21.70;38.00;;;;;;5068366;28;20047;-55
2022/02/14 12:34:29;;;;;;;2.35;0.30;;;21.70;38.10;;;;;;5073949;28;20101;-54
2022/02/14 12:36:59;;;;;;;5.63;0.98;;;21.70;37.90;;;;;;5069127;28;20085;-55
2022/02/14 12:39:33;;;;;;;1.38;0.30;;;21.70;37.90;;;;;;5067966;28;20854;-55
2022/02/14 12:42:19;;;;;;;0.45;0.20;;;21.80;37.80;;;;;;5073260;28;20060;-56
2022/02/14 12:44:50;;;;;;;1.85;0.10;;;21.80;37.80;;;;;;5081880;28;20048;-55
2022/02/14 12:47:19;;;;;;;2.55;0.30;;;21.90;37.70;;;;;;5068562;28;20067;-54
2022/02/14 12:50:17;;;;;;;2.63;0.20;;;21.90;37.70;;;;;;5071924;28;20054;-54
2022/02/14 12:52:47;;;;;;;2.15;0.40;;;22.00;37.60;;;;;;4997297;28;20041;-54
2022/02/14 12:55:16;;;;;;;0.93;0.10;;;22.00;37.60;;;;;;5001378;28;20550;-55
2022/02/14 12:57:48;;;;;;;0.50;0.10;;;22.10;37.60;;;;;;4993802;28;20046;-53
2022/02/14 13:00:31;;;;;;;1.40;0.13;;;22.10;37.50;;;;;;4996283;28;20053;-55
2022/02/14 13:03:01;;;;;;;3.05;0.35;;;22.20;37.50;;;;;;4992947;28;20053;-56
2022/02/14 13:05:31;;;;;;;1.08;0.10;;;22.30;37.50;;;;;;4991366;28;20447;-52
2022/02/14 13:08:01;;;;;;;1.85;0.20;;;22.30;37.40;;;;;;4996681;28;20049;-53